sensor_id;sensor_type;location;lat;lon;timestamp;P1;durP1;ratioP1;P2;durP2;ratioP2
37237;SDS011;23129;49.662;8.448;2023-11-21T00:01:06;13.07;;;2.60;;
37237;SDS011;23129;49.662;8.448;2023-11-21T00:03:37;7.60;;;2.42;;
37237;SDS011;23129;49.662;8.448;2023-11-21T00:06:07;5.00;;;2.08;;
37237;SDS011;23129;49.662;8.448;2023-11-21T00:08:36;18.30;;;3.42;;
37237;SDS011;23129;49.662;8.448;2023-11-21T00:11:05;11.10;;;2.90;;
37237;SDS011;23129;49.662;8.448;2023-11-21T00:13:33;9.43;;;2.72;;
37237;SDS011;23129;49.662;8.448;2023-11-21T00:16:02;7.30;;;2.85;;
37237;SDS011;23129;49.662;8.448;2023-11-21T00:18:32;13.63;;;2.40;;
37237;SDS011;23129;49.662;8.448;2023-11-21T00:21:02;4.22;;;2.15;;
37237;SDS011;23129;49.662;8.448;2023-11-21T00:23:30;6.75;;;2.55;;
37237;SDS011;23129;49.662;8.448;2023-11-21T00:25:59;6.93;;;2.35;;
37237;SDS011;23129;49.662;8.448;2023-11-21T00:28:28;6.05;;;2.40;;
37237;SDS011;23129;49.662;8.448;2023-11-21T00:30:57;10.25;;;2.70;;
37237;SDS011;23129;49.662;8.448;2023-11-21T00:33:26;6.35;;;2.72;;
37237;SDS011;23129;49.662;8.448;2023-11-21T00:35:54;4.57;;;2.70;;
37237;SDS011;23129;49.662;8.448;2023-11-21T00:38:24;8.95;;;3.15;;
37237;SDS011;23129;49.662;8.448;2023-11-21T00:40:53;3.97;;;2.15;;
37237;SDS011;23129;49.662;8.448;2023-11-21T00:43:22;6.43;;;2.80;;
37237;SDS011;23129;49.662;8.448;2023-11-21T00:45:51;14.60;;;3.20;;
37237;SDS011;23129;49.662;8.448;2023-11-21T00:48:20;5.05;;;2.35;;
37237;SDS011;23129;49.662;8.448;2023-11-21T00:50:48;5.32;;;2.22;;
37237;SDS011;23129;49.662;8.448;2023-11-21T00:53:17;3.60;;;1.85;;
37237;SDS011;23129;49.662;8.448;2023-11-21T00:55:47;8.13;;;1.55;;
37237;SDS011;23129;49.662;8.448;2023-11-21T00:58:16;6.50;;;1.40;;
37237;SDS011;23129;49.662;8.448;2023-11-21T01:00:45;11.70;;;1.52;;
37237;SDS011;23129;49.662;8.448;2023-11-21T01:03:14;5.10;;;1.83;;
37237;SDS011;23129;49.662;8.448;2023-11-21T01:05:43;2.75;;;1.48;;
37237;SDS011;23129;49.662;8.448;2023-11-21T01:08:12;3.67;;;1.55;;
37237;SDS011;23129;49.662;8.448;2023-11-21T01:10:41;2.92;;;1.83;;
37237;SDS011;23129;49.662;8.448;2023-11-21T01:13:11;8.10;;;1.40;;
37237;SDS011;23129;49.662;8.448;2023-11-21T01:15:42;5.65;;;2.00;;
37237;SDS011;23129;49.662;8.448;2023-11-21T01:18:11;4.53;;;1.50;;
37237;SDS011;23129;49.662;8.448;2023-11-21T01:20:40;3.33;;;1.60;;
37237;SDS011;23129;49.662;8.448;2023-11-21T01:23:08;8.25;;;2.38;;
37237;SDS011;23129;49.662;8.448;2023-11-21T01:25:37;6.40;;;1.15;;
37237;SDS011;23129;49.662;8.448;2023-11-21T01:28:08;6.38;;;1.73;;
37237;SDS011;23129;49.662;8.448;2023-11-21T01:30:38;3.42;;;2.30;;
37237;SDS011;23129;49.662;8.448;2023-11-21T01:33:07;4.30;;;1.77;;
37237;SDS011;23129;49.662;8.448;2023-11-21T01:35:36;10.02;;;2.00;;
37237;SDS011;23129;49.662;8.448;2023-11-21T01:38:05;2.03;;;1.67;;
37237;SDS011;23129;49.662;8.448;2023-11-21T01:40:34;5.57;;;1.73;;
37237;SDS011;23129;49.662;8.448;2023-11-21T01:43:03;9.27;;;2.78;;
37237;SDS011;23129;49.662;8.448;2023-11-21T01:45:32;7.60;;;2.58;;
37237;SDS011;23129;49.662;8.448;2023-11-21T01:48:02;6.18;;;1.98;;
37237;SDS011;23129;49.662;8.448;2023-11-21T01:50:33;5.30;;;2.55;;
37237;SDS011;23129;49.662;8.448;2023-11-21T01:53:02;6.68;;;1.92;;
37237;SDS011;23129;49.662;8.448;2023-11-21T01:55:31;13.45;;;3.08;;
37237;SDS011;23129;49.662;8.448;2023-11-21T01:58:00;4.78;;;2.55;;
37237;SDS011;23129;49.662;8.448;2023-11-21T02:00:29;12.65;;;2.55;;
37237;SDS011;23129;49.662;8.448;2023-11-21T02:03:02;4.60;;;2.58;;
37237;SDS011;23129;49.662;8.448;2023-11-21T02:05:30;6.03;;;2.22;;
37237;SDS011;23129;49.662;8.448;2023-11-21T02:07:59;6.80;;;3.28;;
37237;SDS011;23129;49.662;8.448;2023-11-21T02:10:29;4.93;;;2.78;;
37237;SDS011;23129;49.662;8.448;2023-11-21T02:12:58;5.60;;;2.92;;
37237;SDS011;23129;49.662;8.448;2023-11-21T02:15:29;8.30;;;3.15;;
37237;SDS011;23129;49.662;8.448;2023-11-21T02:17:58;6.63;;;2.53;;
37237;SDS011;23129;49.662;8.448;2023-11-21T02:20:28;10.25;;;2.90;;
37237;SDS011;23129;49.662;8.448;2023-11-21T02:22:59;12.88;;;4.00;;
37237;SDS011;23129;49.662;8.448;2023-11-21T02:25:28;13.95;;;4.05;;
37237;SDS011;23129;49.662;8.448;2023-11-21T02:27:59;7.22;;;3.15;;
37237;SDS011;23129;49.662;8.448;2023-11-21T02:30:29;12.70;;;3.67;;
37237;SDS011;23129;49.662;8.448;2023-11-21T02:32:59;7.22;;;3.25;;
37237;SDS011;23129;49.662;8.448;2023-11-21T02:35:28;6.07;;;3.65;;
37237;SDS011;23129;49.662;8.448;2023-11-21T02:37:57;5.22;;;3.35;;
37237;SDS011;23129;49.662;8.448;2023-11-21T02:40:28;9.93;;;3.75;;
37237;SDS011;23129;49.662;8.448;2023-11-21T02:42:57;12.20;;;3.50;;
37237;SDS011;23129;49.662;8.448;2023-11-21T02:45:29;7.13;;;4.40;;
37237;SDS011;23129;49.662;8.448;2023-11-21T02:47:58;11.90;;;4.53;;
37237;SDS011;23129;49.662;8.448;2023-11-21T02:50:29;9.85;;;3.55;;
37237;SDS011;23129;49.662;8.448;2023-11-21T02:52:59;8.25;;;3.35;;
37237;SDS011;23129;49.662;8.448;2023-11-21T02:55:28;8.90;;;3.72;;
37237;SDS011;23129;49.662;8.448;2023-11-21T02:57:57;7.70;;;3.95;;
37237;SDS011;23129;49.662;8.448;2023-11-21T03:00:27;6.05;;;3.83;;
37237;SDS011;23129;49.662;8.448;2023-11-21T03:02:56;8.20;;;3.58;;
37237;SDS011;23129;49.662;8.448;2023-11-21T03:05:28;4.82;;;3.38;;
37237;SDS011;23129;49.662;8.448;2023-11-21T03:07:56;9.65;;;4.07;;
37237;SDS011;23129;49.662;8.448;2023-11-21T03:10:29;10.18;;;4.05;;
37237;SDS011;23129;49.662;8.448;2023-11-21T03:12:57;9.20;;;4.28;;
37237;SDS011;23129;49.662;8.448;2023-11-21T03:15:26;17.35;;;4.72;;
37237;SDS011;23129;49.662;8.448;2023-11-21T03:17:55;10.98;;;5.25;;
37237;SDS011;23129;49.662;8.448;2023-11-21T03:20:24;11.68;;;4.57;;
37237;SDS011;23129;49.662;8.448;2023-11-21T03:22:52;6.75;;;4.10;;
37237;SDS011;23129;49.662;8.448;2023-11-21T03:25:21;6.18;;;4.03;;
37237;SDS011;23129;49.662;8.448;2023-11-21T03:27:52;9.40;;;4.47;;
37237;SDS011;23129;49.662;8.448;2023-11-21T03:30:21;11.93;;;5.00;;
37237;SDS011;23129;49.662;8.448;2023-11-21T03:32:49;5.85;;;3.50;;
37237;SDS011;23129;49.662;8.448;2023-11-21T03:35:19;10.15;;;4.53;;
37237;SDS011;23129;49.662;8.448;2023-11-21T03:37:48;10.20;;;4.03;;
37237;SDS011;23129;49.662;8.448;2023-11-21T03:40:17;7.65;;;4.07;;
37237;SDS011;23129;49.662;8.448;2023-11-21T03:42:47;7.03;;;4.15;;
37237;SDS011;23129;49.662;8.448;2023-11-21T03:45:21;12.23;;;3.88;;
37237;SDS011;23129;49.662;8.448;2023-11-21T03:47:49;10.80;;;3.95;;
37237;SDS011;23129;49.662;8.448;2023-11-21T03:50:18;10.80;;;4.68;;
37237;SDS011;23129;49.662;8.448;2023-11-21T03:52:47;8.88;;;4.03;;
37237;SDS011;23129;49.662;8.448;2023-11-21T03:55:16;6.03;;;3.60;;
37237;SDS011;23129;49.662;8.448;2023-11-21T03:57:45;9.32;;;3.38;;
37237;SDS011;23129;49.662;8.448;2023-11-21T04:00:14;9.98;;;3.53;;
37237;SDS011;23129;49.662;8.448;2023-11-21T04:02:46;4.68;;;3.08;;
37237;SDS011;23129;49.662;8.448;2023-11-21T04:05:15;6.95;;;2.75;;
37237;SDS011;23129;49.662;8.448;2023-11-21T04:07:44;9.57;;;3.40;;
37237;SDS011;23129;49.662;8.448;2023-11-21T04:10:12;3.92;;;2.67;;
37237;SDS011;23129;49.662;8.448;2023-11-21T04:12:42;4.13;;;2.80;;
37237;SDS011;23129;49.662;8.448;2023-11-21T04:15:11;6.13;;;3.53;;
37237;SDS011;23129;49.662;8.448;2023-11-21T04:17:41;8.45;;;3.58;;
37237;SDS011;23129;49.662;8.448;2023-11-21T04:20:11;6.30;;;2.80;;
37237;SDS011;23129;49.662;8.448;2023-11-21T04:22:40;4.97;;;2.65;;
37237;SDS011;23129;49.662;8.448;2023-11-21T04:25:11;5.57;;;2.20;;
37237;SDS011;23129;49.662;8.448;2023-11-21T04:27:42;5.78;;;3.13;;
37237;SDS011;23129;49.662;8.448;2023-11-21T04:30:12;3.50;;;2.85;;
37237;SDS011;23129;49.662;8.448;2023-11-21T04:32:41;5.57;;;2.70;;
37237;SDS011;23129;49.662;8.448;2023-11-21T04:35:12;2.60;;;2.25;;
37237;SDS011;23129;49.662;8.448;2023-11-21T04:37:41;2.60;;;1.85;;
37237;SDS011;23129;49.662;8.448;2023-11-21T04:40:10;4.10;;;2.20;;
37237;SDS011;23129;49.662;8.448;2023-11-21T04:42:39;6.68;;;2.33;;
37237;SDS011;23129;49.662;8.448;2023-11-21T04:45:08;4.63;;;1.77;;
37237;SDS011;23129;49.662;8.448;2023-11-21T04:47:39;5.60;;;1.88;;
37237;SDS011;23129;49.662;8.448;2023-11-21T04:50:10;2.45;;;1.83;;
37237;SDS011;23129;49.662;8.448;2023-11-21T04:52:40;7.90;;;1.92;;
37237;SDS011;23129;49.662;8.448;2023-11-21T04:55:08;4.47;;;2.30;;
37237;SDS011;23129;49.662;8.448;2023-11-21T04:57:37;6.22;;;1.98;;
37237;SDS011;23129;49.662;8.448;2023-11-21T05:00:08;2.58;;;1.67;;
37237;SDS011;23129;49.662;8.448;2023-11-21T05:02:39;5.45;;;2.08;;
37237;SDS011;23129;49.662;8.448;2023-11-21T05:05:10;1.70;;;1.60;;
37237;SDS011;23129;49.662;8.448;2023-11-21T05:07:41;2.40;;;2.03;;
37237;SDS011;23129;49.662;8.448;2023-11-21T05:10:10;2.95;;;2.15;;
37237;SDS011;23129;49.662;8.448;2023-11-21T05:12:41;5.95;;;2.00;;
37237;SDS011;23129;49.662;8.448;2023-11-21T05:15:10;4.22;;;1.92;;
37237;SDS011;23129;49.662;8.448;2023-11-21T05:17:43;2.28;;;2.10;;
37237;SDS011;23129;49.662;8.448;2023-11-21T05:20:17;3.45;;;2.40;;
37237;SDS011;23129;49.662;8.448;2023-11-21T05:22:47;4.75;;;2.60;;
37237;SDS011;23129;49.662;8.448;2023-11-21T05:25:17;6.18;;;2.95;;
37237;SDS011;23129;49.662;8.448;2023-11-21T05:27:45;3.75;;;2.45;;
37237;SDS011;23129;49.662;8.448;2023-11-21T05:30:14;9.35;;;3.65;;
37237;SDS011;23129;49.662;8.448;2023-11-21T05:32:43;3.50;;;2.90;;
37237;SDS011;23129;49.662;8.448;2023-11-21T05:35:13;6.15;;;3.40;;
37237;SDS011;23129;49.662;8.448;2023-11-21T05:37:45;6.28;;;3.15;;
37237;SDS011;23129;49.662;8.448;2023-11-21T05:40:16;14.98;;;3.25;;
37237;SDS011;23129;49.662;8.448;2023-11-21T05:42:45;5.38;;;3.38;;
37237;SDS011;23129;49.662;8.448;2023-11-21T05:45:14;8.68;;;3.40;;
37237;SDS011;23129;49.662;8.448;2023-11-21T05:47:43;13.50;;;6.22;;
37237;SDS011;23129;49.662;8.448;2023-11-21T05:50:14;11.15;;;5.85;;
37237;SDS011;23129;49.662;8.448;2023-11-21T05:52:46;8.70;;;4.55;;
37237;SDS011;23129;49.662;8.448;2023-11-21T05:55:16;9.75;;;5.05;;
37237;SDS011;23129;49.662;8.448;2023-11-21T05:57:47;6.78;;;4.63;;
37237;SDS011;23129;49.662;8.448;2023-11-21T06:00:16;10.00;;;4.95;;
37237;SDS011;23129;49.662;8.448;2023-11-21T06:02:48;8.48;;;6.40;;
37237;SDS011;23129;49.662;8.448;2023-11-21T06:05:20;9.63;;;6.78;;
37237;SDS011;23129;49.662;8.448;2023-11-21T06:07:53;17.63;;;8.25;;
37237;SDS011;23129;49.662;8.448;2023-11-21T06:10:22;12.32;;;6.80;;
37237;SDS011;23129;49.662;8.448;2023-11-21T06:12:52;9.82;;;6.55;;
37237;SDS011;23129;49.662;8.448;2023-11-21T06:15:21;9.73;;;7.18;;
37237;SDS011;23129;49.662;8.448;2023-11-21T06:17:50;12.50;;;7.25;;
37237;SDS011;23129;49.662;8.448;2023-11-21T06:20:20;10.40;;;6.32;;
37237;SDS011;23129;49.662;8.448;2023-11-21T06:22:50;9.85;;;6.68;;
37237;SDS011;23129;49.662;8.448;2023-11-21T06:25:20;11.13;;;6.53;;
37237;SDS011;23129;49.662;8.448;2023-11-21T06:27:49;12.43;;;6.40;;
37237;SDS011;23129;49.662;8.448;2023-11-21T06:30:20;11.85;;;6.18;;
37237;SDS011;23129;49.662;8.448;2023-11-21T06:32:49;10.45;;;6.30;;
37237;SDS011;23129;49.662;8.448;2023-11-21T06:35:19;11.57;;;7.80;;
37237;SDS011;23129;49.662;8.448;2023-11-21T06:37:48;12.32;;;7.65;;
37237;SDS011;23129;49.662;8.448;2023-11-21T06:40:19;11.82;;;6.55;;
37237;SDS011;23129;49.662;8.448;2023-11-21T06:42:48;10.68;;;7.65;;
37237;SDS011;23129;49.662;8.448;2023-11-21T06:45:17;17.55;;;8.20;;
37237;SDS011;23129;49.662;8.448;2023-11-21T06:47:48;14.95;;;7.85;;
37237;SDS011;23129;49.662;8.448;2023-11-21T06:50:17;11.25;;;5.97;;
37237;SDS011;23129;49.662;8.448;2023-11-21T06:52:46;9.00;;;5.93;;
37237;SDS011;23129;49.662;8.448;2023-11-21T06:55:15;11.70;;;6.43;;
37237;SDS011;23129;49.662;8.448;2023-11-21T06:57:45;8.35;;;5.20;;
37237;SDS011;23129;49.662;8.448;2023-11-21T07:00:15;8.70;;;6.20;;
37237;SDS011;23129;49.662;8.448;2023-11-21T07:02:45;9.40;;;6.43;;
37237;SDS011;23129;49.662;8.448;2023-11-21T07:05:14;9.50;;;5.82;;
37237;SDS011;23129;49.662;8.448;2023-11-21T07:07:47;9.13;;;5.50;;
37237;SDS011;23129;49.662;8.448;2023-11-21T07:10:17;7.47;;;5.10;;
37237;SDS011;23129;49.662;8.448;2023-11-21T07:12:47;7.60;;;4.63;;
37237;SDS011;23129;49.662;8.448;2023-11-21T07:15:17;7.28;;;5.03;;
37237;SDS011;23129;49.662;8.448;2023-11-21T07:17:46;8.98;;;4.65;;
37237;SDS011;23129;49.662;8.448;2023-11-21T07:20:15;6.53;;;4.30;;
37237;SDS011;23129;49.662;8.448;2023-11-21T07:22:44;6.13;;;4.35;;
37237;SDS011;23129;49.662;8.448;2023-11-21T07:25:13;5.30;;;4.28;;
37237;SDS011;23129;49.662;8.448;2023-11-21T07:27:42;6.53;;;4.80;;
37237;SDS011;23129;49.662;8.448;2023-11-21T07:30:13;5.75;;;4.22;;
37237;SDS011;23129;49.662;8.448;2023-11-21T07:32:42;4.30;;;2.97;;
37237;SDS011;23129;49.662;8.448;2023-11-21T07:35:11;3.78;;;3.05;;
37237;SDS011;23129;49.662;8.448;2023-11-21T07:37:40;4.32;;;2.80;;
37237;SDS011;23129;49.662;8.448;2023-11-21T07:40:09;4.93;;;2.78;;
37237;SDS011;23129;49.662;8.448;2023-11-21T07:42:39;3.88;;;2.58;;
37237;SDS011;23129;49.662;8.448;2023-11-21T07:45:10;3.75;;;2.53;;
37237;SDS011;23129;49.662;8.448;2023-11-21T07:47:41;2.75;;;2.30;;
37237;SDS011;23129;49.662;8.448;2023-11-21T07:50:11;1.90;;;1.75;;
37237;SDS011;23129;49.662;8.448;2023-11-21T07:52:40;1.77;;;1.52;;
37237;SDS011;23129;49.662;8.448;2023-11-21T07:55:09;2.10;;;1.40;;
37237;SDS011;23129;49.662;8.448;2023-11-21T07:57:38;1.75;;;1.15;;
37237;SDS011;23129;49.662;8.448;2023-11-21T08:00:07;2.15;;;1.35;;
37237;SDS011;23129;49.662;8.448;2023-11-21T08:02:40;1.40;;;1.23;;
37237;SDS011;23129;49.662;8.448;2023-11-21T08:05:09;1.52;;;1.42;;
37237;SDS011;23129;49.662;8.448;2023-11-21T08:07:50;5.07;;;1.70;;
37237;SDS011;23129;49.662;8.448;2023-11-21T08:10:19;1.63;;;1.52;;
37237;SDS011;23129;49.662;8.448;2023-11-21T08:12:48;1.60;;;1.50;;
37237;SDS011;23129;49.662;8.448;2023-11-21T08:15:17;1.77;;;1.67;;
37237;SDS011;23129;49.662;8.448;2023-11-21T08:17:48;1.85;;;1.55;;
37237;SDS011;23129;49.662;8.448;2023-11-21T08:20:16;8.30;;;2.63;;
37237;SDS011;23129;49.662;8.448;2023-11-21T08:22:46;2.35;;;1.60;;
37237;SDS011;23129;49.662;8.448;2023-11-21T08:25:15;2.58;;;1.90;;
37237;SDS011;23129;49.662;8.448;2023-11-21T08:27:46;3.25;;;2.78;;
37237;SDS011;23129;49.662;8.448;2023-11-21T08:30:15;5.22;;;3.03;;
37237;SDS011;23129;49.662;8.448;2023-11-21T08:32:47;5.30;;;2.92;;
37237;SDS011;23129;49.662;8.448;2023-11-21T08:35:16;3.85;;;3.15;;
37237;SDS011;23129;49.662;8.448;2023-11-21T08:37:45;5.18;;;3.90;;
37237;SDS011;23129;49.662;8.448;2023-11-21T08:40:14;6.10;;;4.20;;
37237;SDS011;23129;49.662;8.448;2023-11-21T08:42:44;5.97;;;4.32;;
37237;SDS011;23129;49.662;8.448;2023-11-21T08:45:13;8.88;;;5.00;;
37237;SDS011;23129;49.662;8.448;2023-11-21T08:47:44;9.45;;;5.43;;
37237;SDS011;23129;49.662;8.448;2023-11-21T08:50:14;35.05;;;13.63;;
37237;SDS011;23129;49.662;8.448;2023-11-21T08:52:43;23.35;;;11.05;;
37237;SDS011;23129;49.662;8.448;2023-11-21T08:55:13;19.75;;;6.47;;
37237;SDS011;23129;49.662;8.448;2023-11-21T08:57:43;9.95;;;5.95;;
37237;SDS011;23129;49.662;8.448;2023-11-21T09:00:13;10.18;;;6.50;;
37237;SDS011;23129;49.662;8.448;2023-11-21T09:02:42;10.93;;;6.20;;
37237;SDS011;23129;49.662;8.448;2023-11-21T09:05:11;22.15;;;9.93;;
37237;SDS011;23129;49.662;8.448;2023-11-21T09:07:42;14.27;;;6.93;;
37237;SDS011;23129;49.662;8.448;2023-11-21T09:10:12;18.80;;;6.85;;
37237;SDS011;23129;49.662;8.448;2023-11-21T09:12:41;15.38;;;7.82;;
37237;SDS011;23129;49.662;8.448;2023-11-21T09:15:10;13.70;;;8.13;;
37237;SDS011;23129;49.662;8.448;2023-11-21T09:17:40;14.25;;;7.93;;
37237;SDS011;23129;49.662;8.448;2023-11-21T09:20:10;14.68;;;7.82;;
37237;SDS011;23129;49.662;8.448;2023-11-21T09:22:42;16.17;;;7.60;;
37237;SDS011;23129;49.662;8.448;2023-11-21T09:25:13;17.23;;;8.23;;
37237;SDS011;23129;49.662;8.448;2023-11-21T09:27:42;13.82;;;7.57;;
37237;SDS011;23129;49.662;8.448;2023-11-21T09:30:12;14.07;;;7.25;;
37237;SDS011;23129;49.662;8.448;2023-11-21T09:32:41;17.77;;;7.72;;
37237;SDS011;23129;49.662;8.448;2023-11-21T09:35:12;13.40;;;7.32;;
37237;SDS011;23129;49.662;8.448;2023-11-21T09:37:44;14.57;;;7.10;;
37237;SDS011;23129;49.662;8.448;2023-11-21T09:40:16;13.38;;;7.25;;
37237;SDS011;23129;49.662;8.448;2023-11-21T09:42:53;13.18;;;6.65;;
37237;SDS011;23129;49.662;8.448;2023-11-21T09:45:25;12.50;;;6.68;;
37237;SDS011;23129;49.662;8.448;2023-11-21T09:47:55;9.10;;;5.70;;
37237;SDS011;23129;49.662;8.448;2023-11-21T09:50:25;10.18;;;6.88;;
37237;SDS011;23129;49.662;8.448;2023-11-21T09:52:57;12.98;;;6.90;;
37237;SDS011;23129;49.662;8.448;2023-11-21T09:55:36;14.80;;;5.85;;
37237;SDS011;23129;49.662;8.448;2023-11-21T09:58:07;8.48;;;5.85;;
37237;SDS011;23129;49.662;8.448;2023-11-21T10:00:39;11.93;;;5.63;;
37237;SDS011;23129;49.662;8.448;2023-11-21T10:03:09;14.68;;;5.97;;
37237;SDS011;23129;49.662;8.448;2023-11-21T10:05:38;11.98;;;6.65;;
37237;SDS011;23129;49.662;8.448;2023-11-21T10:08:11;9.13;;;4.78;;
37237;SDS011;23129;49.662;8.448;2023-11-21T10:10:42;17.15;;;5.15;;
37237;SDS011;23129;49.662;8.448;2023-11-21T10:13:12;10.75;;;5.40;;
37237;SDS011;23129;49.662;8.448;2023-11-21T10:15:44;18.15;;;7.95;;
37237;SDS011;23129;49.662;8.448;2023-11-21T10:18:17;18.08;;;9.13;;
37237;SDS011;23129;49.662;8.448;2023-11-21T10:20:48;10.73;;;5.63;;
37237;SDS011;23129;49.662;8.448;2023-11-21T10:23:22;10.88;;;5.63;;
37237;SDS011;23129;49.662;8.448;2023-11-21T10:25:51;6.38;;;5.10;;
37237;SDS011;23129;49.662;8.448;2023-11-21T10:28:24;6.63;;;4.35;;
37237;SDS011;23129;49.662;8.448;2023-11-21T10:30:52;8.43;;;4.72;;
37237;SDS011;23129;49.662;8.448;2023-11-21T10:33:26;8.75;;;5.10;;
37237;SDS011;23129;49.662;8.448;2023-11-21T10:38:27;6.18;;;3.63;;
37237;SDS011;23129;49.662;8.448;2023-11-21T10:41:04;8.40;;;4.38;;
37237;SDS011;23129;49.662;8.448;2023-11-21T10:43:38;8.15;;;4.15;;
37237;SDS011;23129;49.662;8.448;2023-11-21T10:46:07;8.73;;;5.25;;
37237;SDS011;23129;49.662;8.448;2023-11-21T10:48:36;8.25;;;5.60;;
37237;SDS011;23129;49.662;8.448;2023-11-21T10:51:06;6.70;;;5.10;;
37237;SDS011;23129;49.662;8.448;2023-11-21T10:53:39;5.90;;;4.03;;
37237;SDS011;23129;49.662;8.448;2023-11-21T10:56:11;6.90;;;3.55;;
37237;SDS011;23129;49.662;8.448;2023-11-21T10:58:45;5.30;;;3.42;;
37237;SDS011;23129;49.662;8.448;2023-11-21T11:01:16;11.95;;;4.20;;
37237;SDS011;23129;49.662;8.448;2023-11-21T11:03:47;7.30;;;3.33;;
37237;SDS011;23129;49.662;8.448;2023-11-21T11:06:21;4.80;;;3.67;;
37237;SDS011;23129;49.662;8.448;2023-11-21T11:08:54;6.18;;;3.75;;
37237;SDS011;23129;49.662;8.448;2023-11-21T11:11:24;5.68;;;3.35;;
37237;SDS011;23129;49.662;8.448;2023-11-21T11:13:53;7.28;;;3.33;;
37237;SDS011;23129;49.662;8.448;2023-11-21T11:16:23;10.82;;;3.20;;
37237;SDS011;23129;49.662;8.448;2023-11-21T11:18:52;5.47;;;3.28;;
37237;SDS011;23129;49.662;8.448;2023-11-21T11:21:24;4.13;;;3.00;;
37237;SDS011;23129;49.662;8.448;2023-11-21T11:24:04;3.05;;;2.60;;
37237;SDS011;23129;49.662;8.448;2023-11-21T11:26:45;7.57;;;2.53;;
37237;SDS011;23129;49.662;8.448;2023-11-21T11:29:23;4.63;;;2.47;;
37237;SDS011;23129;49.662;8.448;2023-11-21T11:32:03;16.50;;;5.68;;
37237;SDS011;23129;49.662;8.448;2023-11-21T11:34:41;11.15;;;3.55;;
37237;SDS011;23129;49.662;8.448;2023-11-21T11:37:17;4.20;;;2.58;;
37237;SDS011;23129;49.662;8.448;2023-11-21T11:39:48;6.03;;;3.17;;
37237;SDS011;23129;49.662;8.448;2023-11-21T11:42:18;8.10;;;2.83;;
37237;SDS011;23129;49.662;8.448;2023-11-21T11:44:49;8.15;;;2.70;;
37237;SDS011;23129;49.662;8.448;2023-11-21T11:47:20;7.40;;;3.05;;
37237;SDS011;23129;49.662;8.448;2023-11-21T11:49:57;4.53;;;2.50;;
37237;SDS011;23129;49.662;8.448;2023-11-21T11:52:40;2.17;;;1.98;;
37237;SDS011;23129;49.662;8.448;2023-11-21T11:55:12;3.85;;;2.40;;
37237;SDS011;23129;49.662;8.448;2023-11-21T11:57:44;7.40;;;2.47;;
37237;SDS011;23129;49.662;8.448;2023-11-21T12:00:15;12.85;;;5.70;;
37237;SDS011;23129;49.662;8.448;2023-11-21T12:02:47;6.85;;;3.20;;
37237;SDS011;23129;49.662;8.448;2023-11-21T12:05:18;3.05;;;2.15;;
37237;SDS011;23129;49.662;8.448;2023-11-21T12:07:49;10.18;;;3.03;;
37237;SDS011;23129;49.662;8.448;2023-11-21T12:10:22;3.03;;;2.72;;
37237;SDS011;23129;49.662;8.448;2023-11-21T12:12:53;8.32;;;3.55;;
37237;SDS011;23129;49.662;8.448;2023-11-21T12:15:23;8.50;;;3.03;;
37237;SDS011;23129;49.662;8.448;2023-11-21T12:17:55;3.30;;;2.92;;
37237;SDS011;23129;49.662;8.448;2023-11-21T12:20:25;3.10;;;2.38;;
37237;SDS011;23129;49.662;8.448;2023-11-21T12:22:56;3.83;;;2.80;;
37237;SDS011;23129;49.662;8.448;2023-11-21T12:25:28;6.38;;;2.55;;
37237;SDS011;23129;49.662;8.448;2023-11-21T12:27:58;3.63;;;2.47;;
37237;SDS011;23129;49.662;8.448;2023-11-21T12:30:30;10.15;;;3.17;;
37237;SDS011;23129;49.662;8.448;2023-11-21T12:32:59;2.35;;;2.15;;
37237;SDS011;23129;49.662;8.448;2023-11-21T12:35:31;6.57;;;3.08;;
37237;SDS011;23129;49.662;8.448;2023-11-21T12:38:01;9.45;;;2.95;;
37237;SDS011;23129;49.662;8.448;2023-11-21T12:40:32;4.90;;;2.63;;
37237;SDS011;23129;49.662;8.448;2023-11-21T12:43:01;9.52;;;3.67;;
37237;SDS011;23129;49.662;8.448;2023-11-21T12:45:31;8.40;;;2.83;;
37237;SDS011;23129;49.662;8.448;2023-11-21T12:48:00;5.88;;;2.88;;
37237;SDS011;23129;49.662;8.448;2023-11-21T12:50:35;6.03;;;2.63;;
37237;SDS011;23129;49.662;8.448;2023-11-21T12:53:06;6.70;;;2.92;;
37237;SDS011;23129;49.662;8.448;2023-11-21T12:55:40;5.35;;;3.38;;
37237;SDS011;23129;49.662;8.448;2023-11-21T12:58:09;3.42;;;2.60;;
37237;SDS011;23129;49.662;8.448;2023-11-21T13:00:40;3.92;;;2.28;;
37237;SDS011;23129;49.662;8.448;2023-11-21T13:03:11;2.70;;;2.50;;
37237;SDS011;23129;49.662;8.448;2023-11-21T13:05:45;6.70;;;3.05;;
37237;SDS011;23129;49.662;8.448;2023-11-21T13:08:18;6.47;;;3.28;;
37237;SDS011;23129;49.662;8.448;2023-11-21T13:10:51;9.77;;;2.83;;
37237;SDS011;23129;49.662;8.448;2023-11-21T13:13:24;7.55;;;2.90;;
37237;SDS011;23129;49.662;8.448;2023-11-21T13:15:55;15.00;;;5.68;;
37237;SDS011;23129;49.662;8.448;2023-11-21T13:18:28;8.38;;;3.95;;
37237;SDS011;23129;49.662;8.448;2023-11-21T13:20:58;4.95;;;3.15;;
37237;SDS011;23129;49.662;8.448;2023-11-21T13:23:28;8.00;;;3.72;;
37237;SDS011;23129;49.662;8.448;2023-11-21T13:26:04;6.90;;;3.50;;
37237;SDS011;23129;49.662;8.448;2023-11-21T13:28:33;8.02;;;3.42;;
37237;SDS011;23129;49.662;8.448;2023-11-21T13:31:05;5.68;;;2.92;;
37237;SDS011;23129;49.662;8.448;2023-11-21T13:33:47;5.70;;;3.55;;
37237;SDS011;23129;49.662;8.448;2023-11-21T13:36:22;5.75;;;2.92;;
37237;SDS011;23129;49.662;8.448;2023-11-21T13:38:52;9.27;;;3.50;;
37237;SDS011;23129;49.662;8.448;2023-11-21T13:41:22;5.70;;;3.55;;
37237;SDS011;23129;49.662;8.448;2023-11-21T13:43:57;8.07;;;3.50;;
37237;SDS011;23129;49.662;8.448;2023-11-21T13:46:35;6.25;;;3.58;;
37237;SDS011;23129;49.662;8.448;2023-11-21T13:49:05;13.75;;;3.80;;
37237;SDS011;23129;49.662;8.448;2023-11-21T13:51:36;5.63;;;3.58;;
37237;SDS011;23129;49.662;8.448;2023-11-21T13:54:10;15.23;;;3.93;;
37237;SDS011;23129;49.662;8.448;2023-11-21T13:56:40;15.10;;;4.90;;
37237;SDS011;23129;49.662;8.448;2023-11-21T13:59:12;10.50;;;4.38;;
37237;SDS011;23129;49.662;8.448;2023-11-21T14:01:47;15.18;;;4.25;;
37237;SDS011;23129;49.662;8.448;2023-11-21T14:04:26;11.75;;;4.65;;
37237;SDS011;23129;49.662;8.448;2023-11-21T14:07:19;93.15;;;35.58;;
37237;SDS011;23129;49.662;8.448;2023-11-21T14:09:57;141.52;;;50.00;;
37237;SDS011;23129;49.662;8.448;2023-11-21T14:12:28;43.72;;;17.48;;
37237;SDS011;23129;49.662;8.448;2023-11-21T14:15:04;15.45;;;6.68;;
37237;SDS011;23129;49.662;8.448;2023-11-21T14:17:36;12.88;;;4.55;;
37237;SDS011;23129;49.662;8.448;2023-11-21T14:20:08;12.02;;;4.32;;
37237;SDS011;23129;49.662;8.448;2023-11-21T14:22:42;5.40;;;3.78;;
37237;SDS011;23129;49.662;8.448;2023-11-21T14:25:12;12.05;;;4.10;;
37237;SDS011;23129;49.662;8.448;2023-11-21T14:27:42;6.15;;;3.10;;
37237;SDS011;23129;49.662;8.448;2023-11-21T14:30:11;3.85;;;3.10;;
37237;SDS011;23129;49.662;8.448;2023-11-21T14:32:41;7.90;;;3.05;;
37237;SDS011;23129;49.662;8.448;2023-11-21T14:35:10;3.38;;;2.35;;
37237;SDS011;23129;49.662;8.448;2023-11-21T14:37:39;7.40;;;3.30;;
37237;SDS011;23129;49.662;8.448;2023-11-21T14:40:08;7.82;;;3.03;;
37237;SDS011;23129;49.662;8.448;2023-11-21T14:42:37;4.50;;;2.92;;
37237;SDS011;23129;49.662;8.448;2023-11-21T14:45:08;6.43;;;3.85;;
37237;SDS011;23129;49.662;8.448;2023-11-21T14:47:39;12.82;;;5.30;;
37237;SDS011;23129;49.662;8.448;2023-11-21T14:50:13;8.77;;;6.43;;
37237;SDS011;23129;49.662;8.448;2023-11-21T14:52:58;7.93;;;4.32;;
37237;SDS011;23129;49.662;8.448;2023-11-21T14:55:31;4.65;;;2.60;;
37237;SDS011;23129;49.662;8.448;2023-11-21T14:58:07;30.10;;;10.60;;
37237;SDS011;23129;49.662;8.448;2023-11-21T15:00:41;21.33;;;8.25;;
37237;SDS011;23129;49.662;8.448;2023-11-21T15:03:12;10.75;;;3.75;;
37237;SDS011;23129;49.662;8.448;2023-11-21T15:06:04;7.90;;;3.15;;